sensor_id;sensor_type;location;lat;lon;timestamp;P1;durP1;ratioP1;P2;durP2;ratioP2
77520;SDS011;66633;47.628;19.158;2023-01-10T00:01:16;28.52;;;13.98;;
77520;SDS011;66633;47.628;19.158;2023-01-10T00:03:41;33.50;;;16.45;;
77520;SDS011;66633;47.628;19.158;2023-01-10T00:06:07;29.55;;;16.30;;
77520;SDS011;66633;47.628;19.158;2023-01-10T00:08:32;27.65;;;14.27;;
77520;SDS011;66633;47.628;19.158;2023-01-10T00:10:57;34.60;;;17.58;;
77520;SDS011;66633;47.628;19.158;2023-01-10T00:13:43;34.38;;;17.40;;
77520;SDS011;66633;47.628;19.158;2023-01-10T00:16:08;33.33;;;15.73;;
77520;SDS011;66633;47.628;19.158;2023-01-10T00:18:34;29.70;;;15.30;;
77520;SDS011;66633;47.628;19.158;2023-01-10T00:20:59;41.22;;;21.80;;
77520;SDS011;66633;47.628;19.158;2023-01-10T00:23:25;31.15;;;17.45;;
77520;SDS011;66633;47.628;19.158;2023-01-10T00:25:51;29.90;;;16.23;;
77520;SDS011;66633;47.628;19.158;2023-01-10T00:28:16;52.22;;;26.60;;
77520;SDS011;66633;47.628;19.158;2023-01-10T00:30:48;47.97;;;22.33;;
77520;SDS011;66633;47.628;19.158;2023-01-10T00:33:24;40.95;;;20.30;;
77520;SDS011;66633;47.628;19.158;2023-01-10T00:35:50;44.20;;;19.70;;
77520;SDS011;66633;47.628;19.158;2023-01-10T00:38:16;31.85;;;16.48;;
77520;SDS011;66633;47.628;19.158;2023-01-10T00:40:41;47.53;;;20.77;;
77520;SDS011;66633;47.628;19.158;2023-01-10T00:43:07;26.08;;;13.93;;
77520;SDS011;66633;47.628;19.158;2023-01-10T00:45:53;46.00;;;21.67;;
77520;SDS011;66633;47.628;19.158;2023-01-10T00:48:18;38.55;;;19.30;;
77520;SDS011;66633;47.628;19.158;2023-01-10T00:50:44;41.42;;;20.05;;
77520;SDS011;66633;47.628;19.158;2023-01-10T00:53:10;36.13;;;18.83;;
77520;SDS011;66633;47.628;19.158;2023-01-10T00:55:36;28.35;;;14.43;;
77520;SDS011;66633;47.628;19.158;2023-01-10T00:58:01;32.90;;;17.48;;
77520;SDS011;66633;47.628;19.158;2023-01-10T01:00:27;21.23;;;12.43;;
77520;SDS011;66633;47.628;19.158;2023-01-10T01:02:53;21.58;;;11.93;;
77520;SDS011;66633;47.628;19.158;2023-01-10T01:05:18;19.35;;;10.95;;
77520;SDS011;66633;47.628;19.158;2023-01-10T01:07:51;24.00;;;13.32;;
77520;SDS011;66633;47.628;19.158;2023-01-10T01:10:17;23.23;;;12.40;;
77520;SDS011;66633;47.628;19.158;2023-01-10T01:12:52;22.15;;;12.27;;
77520;SDS011;66633;47.628;19.158;2023-01-10T01:15:18;16.17;;;9.32;;
77520;SDS011;66633;47.628;19.158;2023-01-10T01:17:45;16.33;;;8.38;;
77520;SDS011;66633;47.628;19.158;2023-01-10T01:20:11;15.63;;;8.05;;
77520;SDS011;66633;47.628;19.158;2023-01-10T01:22:38;19.58;;;11.02;;
77520;SDS011;66633;47.628;19.158;2023-01-10T01:25:03;18.67;;;10.77;;
77520;SDS011;66633;47.628;19.158;2023-01-10T01:27:30;18.50;;;10.25;;
77520;SDS011;66633;47.628;19.158;2023-01-10T01:29:55;23.48;;;12.27;;
77520;SDS011;66633;47.628;19.158;2023-01-10T01:32:21;17.65;;;9.80;;
77520;SDS011;66633;47.628;19.158;2023-01-10T01:34:47;19.30;;;10.27;;
77520;SDS011;66633;47.628;19.158;2023-01-10T01:37:12;21.75;;;11.13;;
77520;SDS011;66633;47.628;19.158;2023-01-10T01:39:38;20.73;;;12.20;;
77520;SDS011;66633;47.628;19.158;2023-01-10T01:42:03;19.58;;;10.40;;
77520;SDS011;66633;47.628;19.158;2023-01-10T01:44:31;18.48;;;10.20;;
77520;SDS011;66633;47.628;19.158;2023-01-10T01:47:07;19.25;;;10.88;;
77520;SDS011;66633;47.628;19.158;2023-01-10T01:49:42;18.92;;;11.38;;
77520;SDS011;66633;47.628;19.158;2023-01-10T01:52:11;19.17;;;12.05;;
77520;SDS011;66633;47.628;19.158;2023-01-10T01:54:46;18.38;;;9.88;;
77520;SDS011;66633;47.628;19.158;2023-01-10T01:57:13;14.77;;;8.32;;
77520;SDS011;66633;47.628;19.158;2023-01-10T01:59:43;19.65;;;10.95;;
77520;SDS011;66633;47.628;19.158;2023-01-10T02:02:13;16.15;;;9.40;;
77520;SDS011;66633;47.628;19.158;2023-01-10T02:04:47;12.35;;;7.18;;
77520;SDS011;66633;47.628;19.158;2023-01-10T02:07:15;15.52;;;9.30;;
77520;SDS011;66633;47.628;19.158;2023-01-10T02:09:45;17.25;;;9.95;;
77520;SDS011;66633;47.628;19.158;2023-01-10T02:12:15;14.70;;;8.45;;
77520;SDS011;66633;47.628;19.158;2023-01-10T02:14:44;15.23;;;8.60;;
77520;SDS011;66633;47.628;19.158;2023-01-10T02:17:13;15.88;;;9.07;;
77520;SDS011;66633;47.628;19.158;2023-01-10T02:22:25;13.93;;;8.35;;
77520;SDS011;66633;47.628;19.158;2023-01-10T02:38:34;10.50;;;5.68;;
77520;SDS011;66633;47.628;19.158;2023-01-10T02:43:52;12.27;;;7.47;;
77520;SDS011;66633;47.628;19.158;2023-01-10T02:46:25;11.02;;;6.63;;
77520;SDS011;66633;47.628;19.158;2023-01-10T02:48:54;12.73;;;7.38;;
77520;SDS011;66633;47.628;19.158;2023-01-10T02:51:27;8.32;;;5.35;;
77520;SDS011;66633;47.628;19.158;2023-01-10T02:54:36;9.80;;;5.68;;
77520;SDS011;66633;47.628;19.158;2023-01-10T03:04:33;10.48;;;6.50;;
77520;SDS011;66633;47.628;19.158;2023-01-10T03:10:16;14.60;;;7.82;;
77520;SDS011;66633;47.628;19.158;2023-01-10T03:15:17;10.18;;;5.28;;
77520;SDS011;66633;47.628;19.158;2023-01-10T03:17:45;13.30;;;7.05;;
77520;SDS011;66633;47.628;19.158;2023-01-10T03:20:16;10.48;;;6.10;;
77520;SDS011;66633;47.628;19.158;2023-01-10T03:22:45;64.25;;;33.75;;
77520;SDS011;66633;47.628;19.158;2023-01-10T03:25:12;122.68;;;54.78;;
77520;SDS011;66633;47.628;19.158;2023-01-10T03:30:30;267.67;;;113.13;;
77520;SDS011;66633;47.628;19.158;2023-01-10T03:33:17;166.05;;;75.55;;
77520;SDS011;66633;47.628;19.158;2023-01-10T03:35:58;38.35;;;22.13;;
77520;SDS011;66633;47.628;19.158;2023-01-10T03:38:27;57.28;;;37.30;;
77520;SDS011;66633;47.628;19.158;2023-01-10T03:41:05;35.45;;;22.90;;
77520;SDS011;66633;47.628;19.158;2023-01-10T03:49:31;26.45;;;13.63;;
77520;SDS011;66633;47.628;19.158;2023-01-10T03:51:59;19.08;;;11.90;;
77520;SDS011;66633;47.628;19.158;2023-01-10T03:54:26;22.15;;;12.10;;
77520;SDS011;66633;47.628;19.158;2023-01-10T03:56:52;22.45;;;11.55;;
77520;SDS011;66633;47.628;19.158;2023-01-10T03:59:18;19.23;;;10.30;;
77520;SDS011;66633;47.628;19.158;2023-01-10T04:01:47;27.70;;;14.07;;
77520;SDS011;66633;47.628;19.158;2023-01-10T04:04:12;21.13;;;11.70;;
77520;SDS011;66633;47.628;19.158;2023-01-10T04:06:38;19.67;;;10.93;;
77520;SDS011;66633;47.628;19.158;2023-01-10T04:09:03;15.95;;;8.10;;
77520;SDS011;66633;47.628;19.158;2023-01-10T04:11:29;12.52;;;7.40;;
77520;SDS011;66633;47.628;19.158;2023-01-10T04:13:54;10.13;;;5.95;;
77520;SDS011;66633;47.628;19.158;2023-01-10T04:16:20;11.63;;;7.40;;
77520;SDS011;66633;47.628;19.158;2023-01-10T04:18:45;10.98;;;6.82;;
77520;SDS011;66633;47.628;19.158;2023-01-10T04:21:10;10.10;;;5.65;;
77520;SDS011;66633;47.628;19.158;2023-01-10T04:23:36;10.40;;;6.35;;
77520;SDS011;66633;47.628;19.158;2023-01-10T04:26:01;8.48;;;4.07;;
77520;SDS011;66633;47.628;19.158;2023-01-10T04:28:27;10.82;;;6.05;;
77520;SDS011;66633;47.628;19.158;2023-01-10T04:30:52;9.30;;;4.68;;
77520;SDS011;66633;47.628;19.158;2023-01-10T04:33:17;8.10;;;4.47;;
77520;SDS011;66633;47.628;19.158;2023-01-10T04:35:49;9.90;;;5.43;;
77520;SDS011;66633;47.628;19.158;2023-01-10T04:38:15;7.32;;;3.67;;
77520;SDS011;66633;47.628;19.158;2023-01-10T04:40:42;7.35;;;3.75;;
77520;SDS011;66633;47.628;19.158;2023-01-10T04:43:08;7.78;;;4.47;;
77520;SDS011;66633;47.628;19.158;2023-01-10T04:45:34;9.32;;;5.05;;
77520;SDS011;66633;47.628;19.158;2023-01-10T04:47:59;9.32;;;4.85;;
77520;SDS011;66633;47.628;19.158;2023-01-10T04:50:27;7.30;;;3.80;;
77520;SDS011;66633;47.628;19.158;2023-01-10T04:52:56;5.88;;;3.10;;
77520;SDS011;66633;47.628;19.158;2023-01-10T04:55:21;8.10;;;4.10;;
77520;SDS011;66633;47.628;19.158;2023-01-10T04:57:47;7.82;;;4.55;;
77520;SDS011;66633;47.628;19.158;2023-01-10T05:00:12;12.93;;;7.32;;
77520;SDS011;66633;47.628;19.158;2023-01-10T05:02:38;9.25;;;5.20;;
77520;SDS011;66633;47.628;19.158;2023-01-10T05:05:08;11.52;;;6.50;;
77520;SDS011;66633;47.628;19.158;2023-01-10T05:07:39;9.80;;;4.78;;
77520;SDS011;66633;47.628;19.158;2023-01-10T05:10:06;8.95;;;5.38;;
77520;SDS011;66633;47.628;19.158;2023-01-10T05:12:33;10.68;;;6.75;;
77520;SDS011;66633;47.628;19.158;2023-01-10T05:14:58;8.43;;;5.25;;
77520;SDS011;66633;47.628;19.158;2023-01-10T05:17:24;10.80;;;5.63;;
77520;SDS011;66633;47.628;19.158;2023-01-10T05:19:49;13.88;;;5.90;;
77520;SDS011;66633;47.628;19.158;2023-01-10T05:22:15;9.20;;;5.68;;
77520;SDS011;66633;47.628;19.158;2023-01-10T05:24:40;10.13;;;5.60;;
77520;SDS011;66633;47.628;19.158;2023-01-10T05:27:06;26.75;;;13.80;;
77520;SDS011;66633;47.628;19.158;2023-01-10T05:29:32;9.57;;;5.00;;
77520;SDS011;66633;47.628;19.158;2023-01-10T05:31:58;16.20;;;7.88;;
77520;SDS011;66633;47.628;19.158;2023-01-10T05:34:24;9.55;;;4.55;;
77520;SDS011;66633;47.628;19.158;2023-01-10T05:36:50;9.65;;;4.80;;
77520;SDS011;66633;47.628;19.158;2023-01-10T05:39:15;11.00;;;5.63;;
77520;SDS011;66633;47.628;19.158;2023-01-10T05:41:41;11.40;;;6.10;;
77520;SDS011;66633;47.628;19.158;2023-01-10T05:44:06;7.82;;;4.63;;
77520;SDS011;66633;47.628;19.158;2023-01-10T05:46:32;10.68;;;6.85;;
77520;SDS011;66633;47.628;19.158;2023-01-10T05:48:57;10.40;;;5.63;;
77520;SDS011;66633;47.628;19.158;2023-01-10T05:51:24;12.10;;;5.68;;
77520;SDS011;66633;47.628;19.158;2023-01-10T05:53:49;10.00;;;5.70;;
77520;SDS011;66633;47.628;19.158;2023-01-10T05:56:15;9.80;;;5.70;;
77520;SDS011;66633;47.628;19.158;2023-01-10T05:58:40;8.40;;;5.18;;
77520;SDS011;66633;47.628;19.158;2023-01-10T06:01:06;9.43;;;5.45;;
77520;SDS011;66633;47.628;19.158;2023-01-10T06:03:31;8.63;;;4.50;;
77520;SDS011;66633;47.628;19.158;2023-01-10T06:05:57;8.85;;;4.65;;
77520;SDS011;66633;47.628;19.158;2023-01-10T06:08:23;10.00;;;5.80;;
77520;SDS011;66633;47.628;19.158;2023-01-10T06:10:49;9.70;;;6.22;;
77520;SDS011;66633;47.628;19.158;2023-01-10T06:13:14;8.43;;;4.90;;
77520;SDS011;66633;47.628;19.158;2023-01-10T06:15:40;10.73;;;5.43;;
77520;SDS011;66633;47.628;19.158;2023-01-10T06:18:06;8.38;;;5.13;;
77520;SDS011;66633;47.628;19.158;2023-01-10T06:20:33;7.50;;;3.90;;
77520;SDS011;66633;47.628;19.158;2023-01-10T06:22:58;6.22;;;2.92;;
77520;SDS011;66633;47.628;19.158;2023-01-10T06:25:28;7.10;;;2.40;;
77520;SDS011;66633;47.628;19.158;2023-01-10T06:28:00;5.70;;;2.80;;
77520;SDS011;66633;47.628;19.158;2023-01-10T06:30:25;4.65;;;1.90;;
77520;SDS011;66633;47.628;19.158;2023-01-10T06:32:51;5.18;;;2.05;;
77520;SDS011;66633;47.628;19.158;2023-01-10T06:35:16;5.57;;;1.92;;
77520;SDS011;66633;47.628;19.158;2023-01-10T06:37:42;5.28;;;2.28;;
77520;SDS011;66633;47.628;19.158;2023-01-10T06:40:08;5.70;;;2.38;;
77520;SDS011;66633;47.628;19.158;2023-01-10T06:42:34;4.75;;;2.00;;
77520;SDS011;66633;47.628;19.158;2023-01-10T06:45:00;5.10;;;2.20;;
77520;SDS011;66633;47.628;19.158;2023-01-10T06:47:25;5.13;;;2.00;;
77520;SDS011;66633;47.628;19.158;2023-01-10T06:49:51;4.63;;;1.80;;
77520;SDS011;66633;47.628;19.158;2023-01-10T06:52:16;4.72;;;1.98;;
77520;SDS011;66633;47.628;19.158;2023-01-10T06:54:42;4.60;;;1.90;;
77520;SDS011;66633;47.628;19.158;2023-01-10T06:57:08;4.63;;;1.73;;
77520;SDS011;66633;47.628;19.158;2023-01-10T06:59:33;4.05;;;1.70;;
77520;SDS011;66633;47.628;19.158;2023-01-10T07:01:59;4.20;;;1.73;;
77520;SDS011;66633;47.628;19.158;2023-01-10T07:04:24;4.65;;;1.73;;
77520;SDS011;66633;47.628;19.158;2023-01-10T07:06:51;3.80;;;1.60;;
77520;SDS011;66633;47.628;19.158;2023-01-10T07:09:16;3.88;;;1.60;;
77520;SDS011;66633;47.628;19.158;2023-01-10T07:11:42;4.90;;;1.83;;
77520;SDS011;66633;47.628;19.158;2023-01-10T07:14:07;3.28;;;1.20;;
77520;SDS011;66633;47.628;19.158;2023-01-10T07:16:34;4.00;;;1.50;;
77520;SDS011;66633;47.628;19.158;2023-01-10T07:18:59;4.03;;;1.55;;
77520;SDS011;66633;47.628;19.158;2023-01-10T07:21:25;4.32;;;1.55;;
77520;SDS011;66633;47.628;19.158;2023-01-10T07:23:50;3.45;;;1.40;;
77520;SDS011;66633;47.628;19.158;2023-01-10T07:26:16;4.00;;;1.50;;
77520;SDS011;66633;47.628;19.158;2023-01-10T07:28:43;4.10;;;1.58;;
77520;SDS011;66633;47.628;19.158;2023-01-10T07:31:11;3.97;;;1.50;;
77520;SDS011;66633;47.628;19.158;2023-01-10T07:33:37;3.38;;;1.58;;
77520;SDS011;66633;47.628;19.158;2023-01-10T07:36:03;3.65;;;1.27;;
77520;SDS011;66633;47.628;19.158;2023-01-10T07:38:28;3.47;;;1.50;;
77520;SDS011;66633;47.628;19.158;2023-01-10T07:40:54;5.32;;;1.75;;
77520;SDS011;66633;47.628;19.158;2023-01-10T07:43:19;4.10;;;1.45;;
77520;SDS011;66633;47.628;19.158;2023-01-10T07:45:45;3.60;;;1.40;;
77520;SDS011;66633;47.628;19.158;2023-01-10T07:48:10;5.00;;;1.80;;
77520;SDS011;66633;47.628;19.158;2023-01-10T07:50:36;3.35;;;1.20;;
77520;SDS011;66633;47.628;19.158;2023-01-10T07:53:03;4.43;;;1.55;;
77520;SDS011;66633;47.628;19.158;2023-01-10T07:55:31;3.00;;;1.10;;
77520;SDS011;66633;47.628;19.158;2023-01-10T07:57:59;4.05;;;1.40;;
77520;SDS011;66633;47.628;19.158;2023-01-10T08:00:25;4.30;;;1.65;;
77520;SDS011;66633;47.628;19.158;2023-01-10T08:02:53;4.95;;;1.50;;
77520;SDS011;66633;47.628;19.158;2023-01-10T08:05:20;3.22;;;1.48;;
77520;SDS011;66633;47.628;19.158;2023-01-10T08:07:46;4.75;;;1.77;;
77520;SDS011;66633;47.628;19.158;2023-01-10T08:10:12;3.97;;;1.40;;
77520;SDS011;66633;47.628;19.158;2023-01-10T08:12:38;2.88;;;1.17;;
77520;SDS011;66633;47.628;19.158;2023-01-10T08:15:03;3.35;;;1.30;;
77520;SDS011;66633;47.628;19.158;2023-01-10T08:17:31;3.33;;;1.30;;
77520;SDS011;66633;47.628;19.158;2023-01-10T08:19:58;4.47;;;1.52;;
77520;SDS011;66633;47.628;19.158;2023-01-10T08:22:23;4.05;;;1.52;;
77520;SDS011;66633;47.628;19.158;2023-01-10T08:24:48;3.45;;;1.23;;
77520;SDS011;66633;47.628;19.158;2023-01-10T08:27:14;4.47;;;1.50;;
77520;SDS011;66633;47.628;19.158;2023-01-10T08:29:39;4.10;;;1.65;;
77520;SDS011;66633;47.628;19.158;2023-01-10T08:32:06;4.05;;;1.52;;
77520;SDS011;66633;47.628;19.158;2023-01-10T08:34:31;5.90;;;1.70;;
77520;SDS011;66633;47.628;19.158;2023-01-10T08:36:57;5.15;;;1.63;;
77520;SDS011;66633;47.628;19.158;2023-01-10T08:39:22;5.75;;;1.77;;
77520;SDS011;66633;47.628;19.158;2023-01-10T08:41:50;6.85;;;2.22;;
77520;SDS011;66633;47.628;19.158;2023-01-10T08:44:16;7.00;;;1.80;;
77520;SDS011;66633;47.628;19.158;2023-01-10T08:46:41;5.47;;;2.10;;
77520;SDS011;66633;47.628;19.158;2023-01-10T08:49:07;7.05;;;2.47;;
77520;SDS011;66633;47.628;19.158;2023-01-10T08:51:32;6.20;;;1.90;;
77520;SDS011;66633;47.628;19.158;2023-01-10T08:53:58;4.03;;;1.55;;
77520;SDS011;66633;47.628;19.158;2023-01-10T08:56:23;4.53;;;1.80;;
77520;SDS011;66633;47.628;19.158;2023-01-10T08:58:49;5.15;;;1.30;;
77520;SDS011;66633;47.628;19.158;2023-01-10T09:01:15;5.53;;;1.90;;
77520;SDS011;66633;47.628;19.158;2023-01-10T09:03:41;7.03;;;3.08;;
77520;SDS011;66633;47.628;19.158;2023-01-10T09:06:07;9.68;;;5.43;;
77520;SDS011;66633;47.628;19.158;2023-01-10T09:08:33;7.07;;;3.42;;
77520;SDS011;66633;47.628;19.158;2023-01-10T09:10:59;5.65;;;2.38;;
77520;SDS011;66633;47.628;19.158;2023-01-10T09:13:26;5.70;;;2.85;;
77520;SDS011;66633;47.628;19.158;2023-01-10T09:15:53;6.30;;;3.10;;
77520;SDS011;66633;47.628;19.158;2023-01-10T09:18:20;4.55;;;1.60;;
77520;SDS011;66633;47.628;19.158;2023-01-10T09:20:46;4.53;;;1.83;;
77520;SDS011;66633;47.628;19.158;2023-01-10T09:23:14;2.90;;;1.10;;
77520;SDS011;66633;47.628;19.158;2023-01-10T09:25:44;3.20;;;1.20;;
77520;SDS011;66633;47.628;19.158;2023-01-10T09:28:11;4.57;;;1.63;;
77520;SDS011;66633;47.628;19.158;2023-01-10T09:30:36;3.05;;;1.02;;
77520;SDS011;66633;47.628;19.158;2023-01-10T09:33:02;3.97;;;1.30;;
77520;SDS011;66633;47.628;19.158;2023-01-10T09:35:29;5.45;;;1.27;;
77520;SDS011;66633;47.628;19.158;2023-01-10T09:37:56;4.05;;;1.30;;
77520;SDS011;66633;47.628;19.158;2023-01-10T09:51:26;5.18;;;1.63;;
77520;SDS011;66633;47.628;19.158;2023-01-10T09:56:26;5.63;;;1.83;;
77520;SDS011;66633;47.628;19.158;2023-01-10T09:58:53;8.40;;;2.72;;
77520;SDS011;66633;47.628;19.158;2023-01-10T10:01:21;5.80;;;1.73;;
77520;SDS011;66633;47.628;19.158;2023-01-10T10:06:15;4.32;;;1.63;;
77520;SDS011;66633;47.628;19.158;2023-01-10T10:08:41;4.88;;;2.05;;
77520;SDS011;66633;47.628;19.158;2023-01-10T10:16:56;5.20;;;1.40;;
77520;SDS011;66633;47.628;19.158;2023-01-10T10:35:48;2.92;;;1.17;;
77520;SDS011;66633;47.628;19.158;2023-01-10T10:38:24;3.00;;;1.13;;
77520;SDS011;66633;47.628;19.158;2023-01-10T10:40:54;2.72;;;1.00;;
77520;SDS011;66633;47.628;19.158;2023-01-10T10:43:22;6.13;;;1.35;;
77520;SDS011;66633;47.628;19.158;2023-01-10T10:46:12;3.72;;;1.30;;
77520;SDS011;66633;47.628;19.158;2023-01-10T10:48:41;5.90;;;2.20;;
77520;SDS011;66633;47.628;19.158;2023-01-10T10:54:00;4.25;;;1.40;;
77520;SDS011;66633;47.628;19.158;2023-01-10T10:56:26;4.20;;;1.42;;
77520;SDS011;66633;47.628;19.158;2023-01-10T10:58:53;5.70;;;1.67;;
77520;SDS011;66633;47.628;19.158;2023-01-10T11:01:21;8.10;;;2.17;;
77520;SDS011;66633;47.628;19.158;2023-01-10T11:03:49;4.70;;;1.60;;
77520;SDS011;66633;47.628;19.158;2023-01-10T11:06:19;5.82;;;2.55;;
77520;SDS011;66633;47.628;19.158;2023-01-10T11:08:46;4.45;;;1.65;;
77520;SDS011;66633;47.628;19.158;2023-01-10T11:13:46;4.78;;;1.90;;
77520;SDS011;66633;47.628;19.158;2023-01-10T11:16:28;4.78;;;1.90;;
77520;SDS011;66633;47.628;19.158;2023-01-10T11:19:19;3.20;;;1.38;;
77520;SDS011;66633;47.628;19.158;2023-01-10T11:21:51;3.60;;;1.20;;
77520;SDS011;66633;47.628;19.158;2023-01-10T11:27:17;4.32;;;1.33;;
77520;SDS011;66633;47.628;19.158;2023-01-10T11:32:18;3.20;;;1.20;;
77520;SDS011;66633;47.628;19.158;2023-01-10T11:34:50;3.72;;;1.40;;
77520;SDS011;66633;47.628;19.158;2023-01-10T11:37:23;10.02;;;3.70;;
77520;SDS011;66633;47.628;19.158;2023-01-10T11:45:20;3.60;;;1.30;;
77520;SDS011;66633;47.628;19.158;2023-01-10T11:47:59;3.50;;;1.30;;
77520;SDS011;66633;47.628;19.158;2023-01-10T11:50:32;4.65;;;1.30;;
77520;SDS011;66633;47.628;19.158;2023-01-10T11:53:00;4.13;;;1.20;;
77520;SDS011;66633;47.628;19.158;2023-01-10T11:55:29;3.92;;;1.33;;
77520;SDS011;66633;47.628;19.158;2023-01-10T12:00:40;4.03;;;1.20;;
77520;SDS011;66633;47.628;19.158;2023-01-10T12:03:29;3.97;;;1.27;;
77520;SDS011;66633;47.628;19.158;2023-01-10T12:08:31;2.75;;;1.20;;
77520;SDS011;66633;47.628;19.158;2023-01-10T12:11:03;4.57;;;1.67;;
77520;SDS011;66633;47.628;19.158;2023-01-10T12:13:53;4.18;;;1.50;;
77520;SDS011;66633;47.628;19.158;2023-01-10T12:18:46;4.53;;;1.60;;
77520;SDS011;66633;47.628;19.158;2023-01-10T12:21:13;3.83;;;1.13;;
77520;SDS011;66633;47.628;19.158;2023-01-10T12:23:41;3.38;;;1.33;;
77520;SDS011;66633;47.628;19.158;2023-01-10T12:26:08;3.83;;;1.27;;
77520;SDS011;66633;47.628;19.158;2023-01-10T12:28:42;3.25;;;1.33;;
77520;SDS011;66633;47.628;19.158;2023-01-10T12:31:13;4.45;;;1.60;;
77520;SDS011;66633;47.628;19.158;2023-01-10T12:33:46;4.63;;;1.65;;
77520;SDS011;66633;47.628;19.158;2023-01-10T12:39:11;4.63;;;1.67;;
77520;SDS011;66633;47.628;19.158;2023-01-10T12:44:34;6.93;;;1.90;;
77520;SDS011;66633;47.628;19.158;2023-01-10T12:52:48;3.88;;;1.50;;
77520;SDS011;66633;47.628;19.158;2023-01-10T12:55:20;5.50;;;1.70;;
77520;SDS011;66633;47.628;19.158;2023-01-10T12:57:50;4.18;;;1.50;;
77520;SDS011;66633;47.628;19.158;2023-01-10T13:00:21;3.78;;;1.30;;
77520;SDS011;66633;47.628;19.158;2023-01-10T13:02:50;3.55;;;1.52;;
77520;SDS011;66633;47.628;19.158;2023-01-10T13:05:22;4.30;;;1.30;;
77520;SDS011;66633;47.628;19.158;2023-01-10T13:07:50;3.33;;;1.30;;
77520;SDS011;66633;47.628;19.158;2023-01-10T13:10:21;5.30;;;1.70;;
77520;SDS011;66633;47.628;19.158;2023-01-10T13:15:23;4.22;;;1.55;;
77520;SDS011;66633;47.628;19.158;2023-01-10T13:18:16;5.35;;;1.88;;
77520;SDS011;66633;47.628;19.158;2023-01-10T13:20:47;5.75;;;1.70;;
77520;SDS011;66633;47.628;19.158;2023-01-10T13:23:14;5.85;;;1.90;;
77520;SDS011;66633;47.628;19.158;2023-01-10T13:25:53;7.43;;;2.10;;
77520;SDS011;66633;47.628;19.158;2023-01-10T13:28:33;10.95;;;4.28;;
77520;SDS011;66633;47.628;19.158;2023-01-10T13:31:04;5.57;;;1.70;;
77520;SDS011;66633;47.628;19.158;2023-01-10T13:36:24;3.80;;;1.65;;
77520;SDS011;66633;47.628;19.158;2023-01-10T13:38:53;5.43;;;1.90;;
77520;SDS011;66633;47.628;19.158;2023-01-10T13:41:19;4.95;;;1.85;;
77520;SDS011;66633;47.628;19.158;2023-01-10T13:46:43;4.43;;;1.52;;
77520;SDS011;66633;47.628;19.158;2023-01-10T13:51:36;6.05;;;2.08;;
77520;SDS011;66633;47.628;19.158;2023-01-10T13:54:25;5.53;;;2.03;;
77520;SDS011;66633;47.628;19.158;2023-01-10T13:56:51;4.35;;;1.73;;
77520;SDS011;66633;47.628;19.158;2023-01-10T14:02:17;4.85;;;1.35;;
77520;SDS011;66633;47.628;19.158;2023-01-10T14:04:53;4.80;;;1.70;;
77520;SDS011;66633;47.628;19.158;2023-01-10T14:07:21;4.57;;;1.58;;
77520;SDS011;66633;47.628;19.158;2023-01-10T14:10:09;3.28;;;1.30;;
77520;SDS011;66633;47.628;19.158;2023-01-10T14:13:00;5.65;;;1.98;;
77520;SDS011;66633;47.628;19.158;2023-01-10T14:15:51;5.82;;;1.75;;
77520;SDS011;66633;47.628;19.158;2023-01-10T14:18:20;6.65;;;2.25;;
77520;SDS011;66633;47.628;19.158;2023-01-10T14:21:07;5.00;;;2.22;;
77520;SDS011;66633;47.628;19.158;2023-01-10T14:23:37;6.70;;;3.42;;
77520;SDS011;66633;47.628;19.158;2023-01-10T14:26:05;5.22;;;1.80;;
77520;SDS011;66633;47.628;19.158;2023-01-10T14:28:40;6.88;;;2.40;;
77520;SDS011;66633;47.628;19.158;2023-01-10T14:31:06;5.20;;;1.80;;
77520;SDS011;66633;47.628;19.158;2023-01-10T14:33:33;7.10;;;3.42;;
77520;SDS011;66633;47.628;19.158;2023-01-10T14:36:01;5.72;;;2.92;;
77520;SDS011;66633;47.628;19.158;2023-01-10T14:38:34;7.25;;;2.60;;
77520;SDS011;66633;47.628;19.158;2023-01-10T14:41:16;5.20;;;1.67;;
77520;SDS011;66633;47.628;19.158;2023-01-10T14:43:48;5.43;;;2.08;;
77520;SDS011;66633;47.628;19.158;2023-01-10T14:49:28;4.18;;;1.67;;
77520;SDS011;66633;47.628;19.158;2023-01-10T14:52:17;3.58;;;1.50;;
77520;SDS011;66633;47.628;19.158;2023-01-10T14:54:44;6.15;;;1.92;;
77520;SDS011;66633;47.628;19.158;2023-01-10T14:57:17;7.50;;;2.40;;
77520;SDS011;66633;47.628;19.158;2023-01-10T14:59:47;4.75;;;1.88;;
77520;SDS011;66633;47.628;19.158;2023-01-10T15:02:18;7.18;;;2.90;;
77520;SDS011;66633;47.628;19.158;2023-01-10T15:04:59;8.73;;;3.53;;
77520;SDS011;66633;47.628;19.158;2023-01-10T15:07:26;8.90;;;3.72;;
77520;SDS011;66633;47.628;19.158;2023-01-10T15:09:56;4.70;;;1.85;;
77520;SDS011;66633;47.628;19.158;2023-01-10T15:12:26;8.38;;;3.60;;
77520;SDS011;66633;47.628;19.158;2023-01-10T15:15:02;10.07;;;3.88;;
77520;SDS011;66633;47.628;19.158;2023-01-10T15:17:32;21.65;;;10.18;;
77520;SDS011;66633;47.628;19.158;2023-01-10T15:19:59;24.05;;;10.00;;
77520;SDS011;66633;47.628;19.158;2023-01-10T15:22:31;17.48;;;7.65;;
77520;SDS011;66633;47.628;19.158;2023-01-10T15:25:05;19.92;;;9.88;;
77520;SDS011;66633;47.628;19.158;2023-01-10T15:27:49;21.85;;;9.40;;
77520;SDS011;66633;47.628;19.158;2023-01-10T15:30:20;28.90;;;12.70;;
77520;SDS011;66633;47.628;19.158;2023-01-10T15:32:51;25.67;;;11.82;;
77520;SDS011;66633;47.628;19.158;2023-01-10T15:35:20;29.15;;;15.10;;
77520;SDS011;66633;47.628;19.158;2023-01-10T15:37:51;30.20;;;15.88;;
77520;SDS011;66633;47.628;19.158;2023-01-10T15:40:29;31.30;;;16.85;;
77520;SDS011;66633;47.628;19.158;2023-01-10T15:45:41;16.30;;;9.38;;
77520;SDS011;66633;47.628;19.158;2023-01-10T15:51:03;15.10;;;7.15;;
77520;SDS011;66633;47.628;19.158;2023-01-10T15:59:02;11.13;;;5.28;;
77520;SDS011;66633;47.628;19.158;2023-01-10T16:01:29;10.20;;;4.65;;
77520;SDS011;66633;47.628;19.158;2023-01-10T16:04:00;15.98;;;7.18;;
77520;SDS011;66633;47.628;19.158;2023-01-10T16:06:29;18.25;;;7.30;;
77520;SDS011;66633;47.628;19.158;2023-01-10T16:08:58;11.35;;;5.20;;
77520;SDS011;66633;47.628;19.158;2023-01-10T16:11:32;8.35;;;3.63;;
77520;SDS011;66633;47.628;19.158;2023-01-10T16:14:29;8.40;;;3.63;;
77520;SDS011;66633;47.628;19.158;2023-01-10T16:16:54;7.40;;;2.80;;
77520;SDS011;66633;47.628;19.158;2023-01-10T16:19:20;8.55;;;3.67;;
77520;SDS011;66633;47.628;19.158;2023-01-10T16:21:46;15.60;;;7.85;;
77520;SDS011;66633;47.628;19.158;2023-01-10T16:24:21;26.63;;;15.23;;
77520;SDS011;66633;47.628;19.158;2023-01-10T16:26:52;22.13;;;11.68;;
77520;SDS011;66633;47.628;19.158;2023-01-10T16:29:20;19.83;;;9.63;;
77520;SDS011;66633;47.628;19.158;2023-01-10T16:31:49;23.30;;;11.00;;
77520;SDS011;66633;47.628;19.158;2023-01-10T16:34:17;16.98;;;9.23;;
77520;SDS011;66633;47.628;19.158;2023-01-10T16:36:43;24.70;;;10.85;;
77520;SDS011;66633;47.628;19.158;2023-01-10T16:39:15;20.38;;;9.15;;
77520;SDS011;66633;47.628;19.158;2023-01-10T16:41:42;24.50;;;11.23;;
77520;SDS011;66633;47.628;19.158;2023-01-10T16:44:28;22.45;;;10.45;;
77520;SDS011;66633;47.628;19.158;2023-01-10T16:46:54;32.33;;;13.75;;
77520;SDS011;66633;47.628;19.158;2023-01-10T16:49:20;25.00;;;11.75;;
77520;SDS011;66633;47.628;19.158;2023-01-10T16:51:46;24.52;;;10.88;;
77520;SDS011;66633;47.628;19.158;2023-01-10T16:54:13;28.00;;;13.68;;
77520;SDS011;66633;47.628;19.158;2023-01-10T16:56:40;19.15;;;9.23;;
77520;SDS011;66633;47.628;19.158;2023-01-10T16:59:06;15.32;;;7.63;;